KTCM/TCM METAR and TAF weather

Enter ICAO airport designator
Station Type Date Time Source
KTCM METAR 2019/10/23 01:58 UTC NOAA

KTCM 230158Z AUTO 06003KT 10SM OVC041 13/13 A3043 RMK AO2 SLP309 T01280126 $


Station Type Date Time Source
KTCM Decoded METAR 2019/10/23 01:58 UTC NOAA

Tacoma / McChord Air Force Base, WA, United States (KTCM) 47-09N 122-29W 87M
Oct 22, 2019 - 09:58 PM EDT / 2019.10.23 0158 UTC
Wind: from the ENE (060 degrees) at 3 MPH (3 KT):0
Visibility: 10 mile(s):0
Sky conditions: overcast
Temperature: 55.0 F (12.8 C)
Dew Point: 54.7 F (12.6 C)
Relative Humidity: 98%
Pressure (altimeter): 30.43 in. Hg (1030 hPa)
ob: KTCM 230158Z AUTO 06003KT 10SM OVC041 13/13 A3043 RMK AO2 SLP309 T01280126
cycle: 2

Station Type Date Time Source
KTCM TAF 2019/10/22 23:06 UTC NOAA

TAF TAF
AMD KTCM 212357Z 2123/2303 18015G25KT 9000 -RA BR BKN020 OVC030 QNH3010INS
TEMPO 2123/2206 19020G30KT 520009
BECMG 2206/2207 20012G18KT 9000 -SHRA BKN010 BKN030 510209 QNH3008INS
BECMG 2209/2210 20012KT 9000 BR BKN015 BKN030 510209 QNH3017INS
BECMG 2216/2217 20012G18KT 9999 NSW SCT015 BKN025 QNH3022INS TX14/2123Z TN11/2213Z

Example: see airport list